Time;durP1;ratioP1;P1;durP2;ratioP2;P2;SDS_P1;SDS_P2;PMS_P1;PMS_P2;Temp;Humidity;BMP_temperature;BMP_pressure;BME280_temperature;BME280_humidity;BME280_pressure;Samples;Min_cycle;Max_cycle;Signal;HPM_P1;HPM_P2
2023/10/28 00:01:30;;;;;;;4.80;2.20;;;8.00;99.90;;;;;;4984657;28;20387;-70
2023/10/28 00:03:57;;;;;;;4.07;2.38;;;8.00;99.90;;;;;;4988058;28;20023;-69
2023/10/28 00:06:22;;;;;;;4.43;2.35;;;8.00;99.90;;;;;;4983803;28;20085;-69
2023/10/28 00:08:49;;;;;;;5.72;2.67;;;8.00;99.90;;;;;;4984697;28;20046;-72
2023/10/28 00:11:19;;;;;;;4.38;2.35;;;8.00;99.90;;;;;;4988248;28;20121;-69
2023/10/28 00:13:45;;;;;;;4.53;2.25;;;8.00;99.90;;;;;;4977918;28;20459;-70
2023/10/28 00:16:10;;;;;;;4.55;2.47;;;8.00;99.90;;;;;;4984278;28;20022;-69
2023/10/28 00:18:36;;;;;;;5.97;2.72;;;7.90;99.90;;;;;;4983494;28;20089;-70
2023/10/28 00:21:02;;;;;;;5.30;2.70;;;8.00;99.90;;;;;;4980896;28;20065;-69
2023/10/28 00:23:31;;;;;;;5.45;2.75;;;7.90;99.90;;;;;;4983163;28;20393;-69
2023/10/28 00:26:03;;;;;;;5.25;2.90;;;8.00;99.90;;;;;;4985012;28;20053;-69
2023/10/28 00:28:32;;;;;;;5.50;2.60;;;8.00;99.90;;;;;;4981226;28;20058;-69
2023/10/28 00:31:02;;;;;;;5.32;2.75;;;8.00;99.90;;;;;;4984516;28;20122;-69
2023/10/28 00:33:28;;;;;;;5.38;3.08;;;7.90;99.90;;;;;;4981818;28;20031;-69
2023/10/28 00:35:54;;;;;;;6.07;2.72;;;7.90;99.90;;;;;;4981400;28;20026;-73
2023/10/28 00:38:20;;;;;;;5.93;2.83;;;7.90;99.90;;;;;;4982571;28;20142;-69
2023/10/28 00:40:45;;;;;;;7.05;3.30;;;7.90;99.90;;;;;;4989678;28;20530;-70
2023/10/28 00:43:12;;;;;;;6.57;2.97;;;7.90;99.90;;;;;;4985528;28;20478;-69
2023/10/28 00:45:39;;;;;;;4.85;2.40;;;8.00;99.90;;;;;;4989383;28;20329;-70
2023/10/28 00:48:05;;;;;;;5.65;2.85;;;8.00;99.90;;;;;;4984057;28;20081;-69
2023/10/28 00:50:30;;;;;;;6.80;3.45;;;8.00;99.90;;;;;;4987593;28;20034;-69
2023/10/28 00:52:59;;;;;;;6.03;2.95;;;8.00;99.90;;;;;;4986731;28;20034;-69
2023/10/28 00:55:27;;;;;;;7.35;3.08;;;8.00;99.90;;;;;;4992801;28;20034;-69
2023/10/28 00:57:54;;;;;;;6.35;3.15;;;7.90;99.90;;;;;;4980030;28;20368;-70
2023/10/28 01:00:20;;;;;;;5.25;2.65;;;8.00;99.90;;;;;;4988314;28;20038;-69
2023/10/28 01:02:46;;;;;;;5.95;2.97;;;7.90;99.90;;;;;;4993265;28;20042;-70
2023/10/28 01:05:13;;;;;;;6.38;3.17;;;8.00;99.90;;;;;;4988343;28;20050;-69
2023/10/28 01:07:44;;;;;;;5.43;2.85;;;8.00;99.90;;;;;;4986539;28;20392;-70
2023/10/28 01:10:10;;;;;;;6.95;3.17;;;7.90;99.90;;;;;;4986359;28;20374;-69
2023/10/28 01:12:37;;;;;;;6.05;2.83;;;8.00;99.90;;;;;;4981927;28;20045;-69
2023/10/28 01:15:03;;;;;;;4.75;2.92;;;7.90;99.90;;;;;;4981976;28;20054;-69
2023/10/28 01:17:29;;;;;;;7.82;3.03;;;8.00;99.90;;;;;;4987530;28;20422;-70
2023/10/28 01:19:56;;;;;;;5.00;2.70;;;7.90;99.90;;;;;;4983859;28;20463;-70
2023/10/28 01:22:23;;;;;;;6.90;3.10;;;7.90;99.90;;;;;;4989766;28;20057;-71
2023/10/28 01:24:52;;;;;;;5.28;2.95;;;7.90;99.90;;;;;;4983822;28;20145;-69
2023/10/28 01:27:19;;;;;;;6.70;3.25;;;7.80;99.90;;;;;;4987666;28;20050;-69
2023/10/28 01:29:46;;;;;;;7.43;3.63;;;7.80;99.90;;;;;;4982912;28;20031;-69
2023/10/28 01:32:12;;;;;;;6.18;2.83;;;7.90;99.90;;;;;;4985877;28;20475;-70
2023/10/28 01:34:48;;;;;;;7.32;3.33;;;7.90;99.90;;;;;;4988132;28;20041;-70
2023/10/28 01:37:16;;;;;;;4.47;2.25;;;7.90;99.90;;;;;;4988735;28;20502;-70
2023/10/28 01:39:43;;;;;;;5.88;2.80;;;7.90;99.90;;;;;;4988754;28;20030;-70
2023/10/28 01:42:13;;;;;;;8.18;3.00;;;7.80;99.90;;;;;;4985586;28;20022;-71
2023/10/28 01:44:39;;;;;;;8.30;3.45;;;7.90;99.90;;;;;;4984328;28;20562;-70
2023/10/28 01:47:04;;;;;;;6.55;3.13;;;7.80;99.90;;;;;;4985027;28;20030;-69
2023/10/28 01:49:31;;;;;;;5.03;2.78;;;7.80;99.90;;;;;;4983081;28;20034;-72
2023/10/28 01:51:56;;;;;;;7.00;3.33;;;7.80;99.90;;;;;;4987227;28;20100;-70
2023/10/28 01:54:22;;;;;;;7.20;3.80;;;7.80;99.90;;;;;;4985923;28;20034;-69
2023/10/28 01:56:47;;;;;;;8.52;3.13;;;7.80;99.90;;;;;;4987015;28;20118;-70
2023/10/28 01:59:13;;;;;;;5.72;2.38;;;7.90;99.90;;;;;;4986303;28;20034;-69
2023/10/28 02:01:38;;;;;;;6.20;3.03;;;7.80;99.90;;;;;;4986505;28;20041;-71
2023/10/28 02:04:06;;;;;;;8.13;3.70;;;7.80;99.90;;;;;;4987209;28;20070;-70
2023/10/28 02:06:32;;;;;;;8.48;3.20;;;7.90;99.90;;;;;;4986554;28;20444;-72
2023/10/28 02:08:57;;;;;;;6.82;3.58;;;7.80;99.90;;;;;;4987447;28;20115;-70
2023/10/28 02:11:23;;;;;;;9.88;4.20;;;7.90;99.90;;;;;;4988961;28;20563;-72
2023/10/28 02:13:49;;;;;;;7.05;3.55;;;7.90;99.90;;;;;;4980195;28;20034;-71
2023/10/28 02:16:15;;;;;;;7.43;3.58;;;7.80;99.90;;;;;;4979277;28;20045;-72
2023/10/28 02:18:40;;;;;;;9.18;3.50;;;7.80;99.90;;;;;;4988607;28;20073;-70
2023/10/28 02:21:06;;;;;;;7.57;3.35;;;7.90;99.90;;;;;;4989285;28;20027;-69
2023/10/28 02:23:32;;;;;;;5.43;2.88;;;7.80;99.90;;;;;;4988808;28;20054;-69
2023/10/28 02:25:58;;;;;;;5.72;2.88;;;7.80;99.90;;;;;;4989002;28;20428;-71
2023/10/28 02:28:23;;;;;;;7.55;3.03;;;7.80;99.90;;;;;;4982777;28;20046;-70
2023/10/28 02:30:49;;;;;;;6.43;3.40;;;7.80;99.90;;;;;;4984347;28;20030;-69
2023/10/28 02:33:14;;;;;;;7.43;2.92;;;7.80;99.90;;;;;;4985594;28;20038;-71
2023/10/28 02:35:40;;;;;;;7.00;3.60;;;7.70;99.90;;;;;;4985247;28;20363;-70
2023/10/28 02:38:06;;;;;;;6.28;3.20;;;7.80;99.90;;;;;;4986095;28;20038;-70
2023/10/28 02:40:31;;;;;;;7.40;3.63;;;7.70;99.90;;;;;;4982219;28;20370;-69
2023/10/28 02:42:56;;;;;;;8.18;3.40;;;7.70;99.90;;;;;;4984217;28;20030;-69
2023/10/28 02:45:22;;;;;;;8.30;3.90;;;7.80;99.90;;;;;;4982226;28;21834;-70
2023/10/28 02:47:49;;;;;;;6.78;3.50;;;7.80;99.90;;;;;;4987543;28;20438;-70
2023/10/28 02:50:15;;;;;;;6.93;3.20;;;7.70;99.90;;;;;;4985790;28;20502;-69
2023/10/28 02:52:40;;;;;;;6.72;3.50;;;7.70;99.90;;;;;;4989644;28;20049;-70
2023/10/28 02:55:06;;;;;;;6.55;3.15;;;7.70;99.90;;;;;;4988994;28;20569;-69
2023/10/28 02:57:34;;;;;;;9.50;3.75;;;7.80;99.90;;;;;;4985299;28;20038;-69
2023/10/28 03:00:00;;;;;;;5.78;3.00;;;7.80;99.90;;;;;;4986418;28;20030;-69
2023/10/28 03:02:25;;;;;;;7.40;2.58;;;7.80;99.90;;;;;;4985876;28;20743;-70
2023/10/28 03:04:51;;;;;;;5.68;2.42;;;7.70;99.90;;;;;;4986767;28;20026;-69
2023/10/28 03:07:17;;;;;;;5.00;2.17;;;7.70;99.90;;;;;;4985108;28;20068;-70
2023/10/28 03:09:42;;;;;;;5.22;2.70;;;7.70;99.90;;;;;;4990791;28;20045;-70
2023/10/28 03:12:08;;;;;;;6.55;3.40;;;7.80;99.90;;;;;;4978521;28;20503;-69
2023/10/28 03:14:34;;;;;;;6.97;2.72;;;7.70;99.90;;;;;;4987187;28;20133;-72
2023/10/28 03:16:59;;;;;;;6.35;2.92;;;7.80;99.90;;;;;;4985732;28;20054;-69
2023/10/28 03:19:25;;;;;;;5.85;2.70;;;7.70;99.90;;;;;;4988521;28;20070;-70
2023/10/28 03:21:50;;;;;;;6.70;3.05;;;7.70;99.90;;;;;;4981558;28;20057;-72
2023/10/28 03:24:16;;;;;;;5.45;2.53;;;7.80;99.90;;;;;;4988148;28;20070;-70
2023/10/28 03:26:42;;;;;;;6.55;2.80;;;7.80;99.90;;;;;;4986512;28;20515;-73
2023/10/28 03:29:07;;;;;;;5.88;2.58;;;7.80;99.90;;;;;;4983087;28;20052;-71
2023/10/28 03:31:33;;;;;;;5.22;2.55;;;7.80;99.90;;;;;;4986305;28;20065;-69
2023/10/28 03:33:59;;;;;;;5.10;2.38;;;7.80;99.90;;;;;;4986817;28;20030;-69
2023/10/28 03:36:25;;;;;;;5.22;2.35;;;7.70;99.90;;;;;;4988452;28;20038;-69
2023/10/28 03:38:50;;;;;;;5.78;2.45;;;7.80;99.90;;;;;;4986163;28;20034;-69
2023/10/28 03:41:15;;;;;;;7.13;2.47;;;7.80;99.90;;;;;;4978055;28;20478;-70
2023/10/28 03:43:41;;;;;;;3.42;1.95;;;7.80;99.90;;;;;;4976552;28;20117;-69
2023/10/28 03:46:07;;;;;;;4.65;2.30;;;7.70;99.90;;;;;;4981314;28;20026;-69
2023/10/28 03:48:33;;;;;;;4.57;2.33;;;7.80;99.90;;;;;;4987029;28;20045;-70
2023/10/28 03:51:01;;;;;;;3.80;1.92;;;7.80;99.90;;;;;;4988315;28;20038;-69
2023/10/28 03:53:27;;;;;;;5.53;2.53;;;7.80;99.90;;;;;;4982174;28;20030;-70
2023/10/28 03:55:52;;;;;;;4.03;2.00;;;7.70;99.90;;;;;;4985801;28;20045;-72
2023/10/28 03:58:18;;;;;;;5.32;2.38;;;7.70;99.90;;;;;;4975413;28;20072;-72
2023/10/28 04:00:43;;;;;;;3.92;2.15;;;7.70;99.90;;;;;;4979941;28;20046;-71
2023/10/28 04:03:09;;;;;;;5.50;2.88;;;7.70;99.90;;;;;;4981040;28;20562;-70
2023/10/28 04:05:34;;;;;;;4.65;2.33;;;7.70;99.90;;;;;;4986064;28;20042;-70
2023/10/28 04:08:00;;;;;;;5.22;2.72;;;7.70;99.90;;;;;;4981631;28;20026;-70
2023/10/28 04:10:25;;;;;;;5.85;2.28;;;7.70;99.90;;;;;;4983884;28;20042;-72
2023/10/28 04:12:51;;;;;;;7.18;2.55;;;7.70;99.90;;;;;;4987592;28;20121;-72
2023/10/28 04:15:18;;;;;;;5.95;2.45;;;7.70;99.90;;;;;;4983767;28;20360;-71
2023/10/28 04:17:44;;;;;;;7.55;2.85;;;7.70;99.90;;;;;;4983618;28;20066;-71
2023/10/28 04:20:10;;;;;;;7.05;2.75;;;7.70;99.90;;;;;;4990315;28;20042;-71
2023/10/28 04:22:36;;;;;;;6.07;2.28;;;7.70;99.90;;;;;;4990338;28;20521;-73
2023/10/28 04:25:01;;;;;;;5.45;2.78;;;7.70;99.90;;;;;;4984170;28;20074;-72
2023/10/28 04:27:27;;;;;;;4.95;2.22;;;7.70;99.90;;;;;;4985356;28;20038;-68
2023/10/28 04:29:52;;;;;;;4.32;2.40;;;7.60;99.90;;;;;;4990169;28;20051;-67
2023/10/28 04:32:22;;;;;;;5.47;2.33;;;7.60;99.90;;;;;;4989516;28;20583;-68
2023/10/28 04:34:48;;;;;;;5.15;2.30;;;7.70;99.90;;;;;;4990027;28;20029;-67
2023/10/28 04:37:14;;;;;;;6.45;2.75;;;7.70;99.90;;;;;;4988680;28;20041;-67
2023/10/28 04:39:40;;;;;;;5.50;2.40;;;7.70;99.90;;;;;;4991678;28;20035;-68
2023/10/28 04:42:07;;;;;;;6.15;2.95;;;7.60;99.90;;;;;;4990272;28;20089;-68
2023/10/28 04:44:33;;;;;;;7.18;2.83;;;7.70;99.90;;;;;;4988340;28;20030;-69
2023/10/28 04:47:01;;;;;;;5.75;2.33;;;7.60;99.90;;;;;;4989346;28;20460;-67
2023/10/28 04:49:27;;;;;;;6.20;2.60;;;7.70;99.90;;;;;;4990324;28;20053;-67
2023/10/28 04:51:54;;;;;;;7.07;2.28;;;7.70;99.90;;;;;;4990823;28;20157;-67
2023/10/28 04:54:19;;;;;;;5.68;2.53;;;7.80;99.90;;;;;;4992485;28;20524;-67
2023/10/28 04:56:45;;;;;;;5.43;2.53;;;7.80;99.90;;;;;;4991208;28;20198;-69
2023/10/28 04:59:10;;;;;;;4.65;2.40;;;7.80;99.90;;;;;;4984530;28;20411;-67
2023/10/28 05:01:36;;;;;;;4.85;2.47;;;7.70;99.90;;;;;;4991841;28;20030;-68
2023/10/28 05:04:02;;;;;;;5.03;2.22;;;7.70;99.90;;;;;;4988831;28;20023;-68
2023/10/28 05:06:27;;;;;;;4.60;2.05;;;7.80;99.90;;;;;;4983875;28;20037;-67
2023/10/28 05:08:53;;;;;;;6.20;2.25;;;7.80;99.90;;;;;;4989941;28;20102;-68
2023/10/28 05:11:19;;;;;;;5.93;2.60;;;7.80;99.90;;;;;;4990059;28;20043;-67
2023/10/28 05:13:44;;;;;;;5.00;2.40;;;7.80;99.90;;;;;;4990286;28;20097;-67
2023/10/28 05:16:10;;;;;;;3.85;2.00;;;7.80;99.90;;;;;;4990374;28;20022;-68
2023/10/28 05:18:36;;;;;;;5.53;2.78;;;7.80;99.90;;;;;;4990300;28;20066;-67
2023/10/28 05:21:01;;;;;;;5.78;2.78;;;7.70;99.90;;;;;;4991619;28;20037;-67
2023/10/28 05:23:27;;;;;;;7.28;2.30;;;7.80;99.90;;;;;;4985377;28;20043;-67
2023/10/28 05:25:53;;;;;;;4.28;2.05;;;7.80;99.90;;;;;;4982770;28;20062;-67
2023/10/28 05:28:19;;;;;;;4.97;1.92;;;7.80;99.90;;;;;;4987490;28;20034;-67
2023/10/28 05:30:45;;;;;;;4.50;2.10;;;7.80;99.90;;;;;;4989715;28;20041;-67
2023/10/28 05:33:11;;;;;;;5.25;2.35;;;7.80;99.90;;;;;;4992548;28;20459;-68
2023/10/28 05:35:37;;;;;;;4.78;1.98;;;7.80;99.90;;;;;;4987499;28;20085;-67
2023/10/28 05:38:02;;;;;;;5.88;1.73;;;7.80;99.90;;;;;;4988711;28;20452;-68
2023/10/28 05:40:28;;;;;;;4.35;1.92;;;7.80;99.90;;;;;;4986277;28;20038;-67
2023/10/28 05:42:54;;;;;;;3.80;2.10;;;7.80;99.90;;;;;;4984955;28;20035;-69
2023/10/28 05:45:20;;;;;;;6.43;2.22;;;7.80;99.90;;;;;;4985527;28;20065;-67
2023/10/28 05:47:46;;;;;;;3.92;1.95;;;7.80;99.90;;;;;;4986447;28;20066;-67
2023/10/28 05:50:12;;;;;;;6.78;2.53;;;7.80;99.90;;;;;;4988805;28;20506;-67
2023/10/28 05:52:40;;;;;;;4.72;2.15;;;7.80;99.90;;;;;;4990182;28;20113;-67
2023/10/28 05:55:12;;;;;;;4.03;1.80;;;7.80;99.90;;;;;;4983792;28;20035;-67
2023/10/28 05:57:40;;;;;;;4.38;1.90;;;7.80;99.90;;;;;;4981254;28;20038;-67
2023/10/28 06:00:10;;;;;;;4.65;1.90;;;7.80;99.90;;;;;;4989183;28;20430;-67
2023/10/28 06:02:37;;;;;;;4.45;1.88;;;7.80;99.90;;;;;;4989263;28;20040;-67
2023/10/28 06:05:05;;;;;;;3.97;1.75;;;7.80;99.90;;;;;;4985987;28;20448;-68
2023/10/28 06:07:31;;;;;;;3.10;1.52;;;7.80;99.90;;;;;;4986413;28;20038;-67
2023/10/28 06:09:56;;;;;;;4.95;2.03;;;7.80;99.90;;;;;;4985788;28;20046;-67
2023/10/28 06:12:22;;;;;;;5.95;2.20;;;7.80;99.90;;;;;;4985517;28;20585;-67
2023/10/28 06:14:47;;;;;;;3.58;1.95;;;7.80;99.90;;;;;;4981391;28;20030;-67
2023/10/28 06:17:13;;;;;;;4.88;2.30;;;7.80;99.90;;;;;;4987005;28;20034;-66
2023/10/28 06:19:40;;;;;;;4.07;1.75;;;7.80;99.90;;;;;;4989280;28;20027;-67
2023/10/28 06:22:06;;;;;;;3.40;1.98;;;7.80;99.90;;;;;;4984699;28;20034;-67
2023/10/28 06:24:32;;;;;;;3.80;1.83;;;7.80;99.90;;;;;;4987847;28;20054;-67
2023/10/28 06:26:58;;;;;;;4.38;2.35;;;7.90;99.90;;;;;;4983816;28;20152;-68
2023/10/28 06:29:25;;;;;;;6.05;2.00;;;7.90;99.90;;;;;;4986393;28;20050;-67
2023/10/28 06:31:50;;;;;;;3.85;2.03;;;7.90;99.90;;;;;;4985600;28;20049;-69
2023/10/28 06:34:16;;;;;;;3.20;1.85;;;7.90;99.90;;;;;;4985545;28;20045;-70
2023/10/28 06:36:41;;;;;;;4.65;1.77;;;7.90;99.90;;;;;;4987817;28;20065;-67
2023/10/28 06:39:10;;;;;;;5.75;2.40;;;7.90;99.90;;;;;;4986140;28;20057;-67
2023/10/28 06:41:36;;;;;;;5.40;2.33;;;7.90;99.90;;;;;;4985794;28;20026;-68
2023/10/28 06:44:05;;;;;;;5.88;1.98;;;8.00;99.90;;;;;;4989131;28;20116;-67
2023/10/28 06:46:34;;;;;;;4.75;1.92;;;7.90;99.90;;;;;;4983808;28;20030;-67
2023/10/28 06:49:00;;;;;;;2.97;1.70;;;8.00;99.90;;;;;;4987251;28;20129;-67
2023/10/28 06:51:25;;;;;;;6.72;2.83;;;7.90;99.90;;;;;;4988501;28;20425;-67
2023/10/28 06:53:50;;;;;;;4.38;2.08;;;7.90;99.90;;;;;;4988278;28;20065;-67
2023/10/28 06:56:16;;;;;;;4.45;2.10;;;8.00;99.90;;;;;;4981647;28;20049;-67
2023/10/28 06:58:42;;;;;;;6.00;2.25;;;8.00;99.90;;;;;;4986973;28;20030;-68
2023/10/28 07:01:09;;;;;;;3.80;2.00;;;8.10;99.90;;;;;;4982070;28;20081;-69
2023/10/28 07:03:37;;;;;;;3.92;1.90;;;8.10;99.90;;;;;;4986588;28;20470;-67
2023/10/28 07:06:09;;;;;;;4.93;1.98;;;8.10;99.90;;;;;;4983291;28;20113;-68
2023/10/28 07:08:36;;;;;;;4.88;2.30;;;8.10;99.90;;;;;;4980805;28;20372;-67
2023/10/28 07:11:02;;;;;;;4.32;1.95;;;8.10;99.90;;;;;;4987485;28;20019;-68
2023/10/28 07:13:27;;;;;;;5.43;2.28;;;8.10;99.90;;;;;;4982783;28;20030;-67
2023/10/28 07:16:03;;;;;;;4.68;2.60;;;8.10;99.90;;;;;;4986185;28;20384;-67
2023/10/28 07:18:32;;;;;;;5.70;2.55;;;8.10;99.90;;;;;;4984161;28;20162;-67
2023/10/28 07:20:58;;;;;;;4.45;2.08;;;8.10;99.90;;;;;;4984692;28;20390;-67
2023/10/28 07:23:27;;;;;;;5.75;2.88;;;8.10;99.90;;;;;;4985567;28;20037;-67
2023/10/28 07:25:56;;;;;;;4.88;2.10;;;8.10;99.90;;;;;;4987700;28;20491;-66
2023/10/28 07:28:24;;;;;;;3.55;1.85;;;8.10;99.90;;;;;;4979620;28;20046;-69
2023/10/28 07:30:51;;;;;;;5.40;2.47;;;8.20;99.90;;;;;;4983392;28;20506;-67
2023/10/28 07:33:21;;;;;;;3.97;2.13;;;8.20;99.90;;;;;;4986330;28;20036;-67
2023/10/28 07:35:48;;;;;;;5.40;2.40;;;8.30;99.90;;;;;;4986777;28;20033;-67
2023/10/28 07:38:15;;;;;;;5.25;2.40;;;8.30;99.90;;;;;;4980542;28;20407;-67
2023/10/28 07:40:41;;;;;;;5.57;2.78;;;8.40;99.90;;;;;;4986640;28;20046;-67
2023/10/28 07:43:07;;;;;;;4.57;2.08;;;8.40;99.90;;;;;;4981054;28;20157;-67
2023/10/28 07:45:33;;;;;;;4.43;2.13;;;8.50;99.90;;;;;;4987045;28;20069;-68
2023/10/28 07:47:59;;;;;;;4.30;2.35;;;8.50;99.90;;;;;;4985999;28;20034;-67
2023/10/28 07:50:24;;;;;;;5.43;2.53;;;8.50;99.90;;;;;;4986361;28;20054;-67
2023/10/28 07:52:50;;;;;;;2.92;1.75;;;8.50;99.90;;;;;;4986246;28;20557;-67
2023/10/28 07:55:15;;;;;;;6.03;2.33;;;8.60;99.90;;;;;;4986839;28;20034;-69
2023/10/28 07:57:41;;;;;;;5.50;2.60;;;8.60;99.90;;;;;;4979879;28;20044;-67
2023/10/28 08:00:10;;;;;;;4.72;2.30;;;8.60;99.90;;;;;;4986606;28;20030;-67
2023/10/28 08:02:36;;;;;;;7.13;2.67;;;8.50;99.90;;;;;;4984708;28;20034;-68
2023/10/28 08:05:01;;;;;;;4.22;1.95;;;8.50;99.90;;;;;;4982848;28;20048;-67
2023/10/28 08:07:26;;;;;;;4.65;2.17;;;8.50;99.90;;;;;;4985945;28;20030;-67
2023/10/28 08:09:52;;;;;;;5.18;2.30;;;8.50;99.90;;;;;;4987658;28;20062;-68
2023/10/28 08:12:18;;;;;;;5.80;2.30;;;8.60;99.90;;;;;;4979198;28;20061;-68
2023/10/28 08:14:46;;;;;;;6.57;2.55;;;8.60;99.90;;;;;;4983488;28;20084;-69
2023/10/28 08:17:12;;;;;;;7.15;2.63;;;8.70;99.90;;;;;;4984716;28;20026;-69
2023/10/28 08:19:38;;;;;;;5.32;2.53;;;8.60;99.90;;;;;;4988165;28;20085;-67
2023/10/28 08:22:03;;;;;;;5.63;2.30;;;8.50;99.90;;;;;;4986093;28;20043;-67
2023/10/28 08:24:29;;;;;;;6.28;2.50;;;8.60;99.90;;;;;;4984554;28;20153;-66
2023/10/28 08:26:56;;;;;;;5.80;2.67;;;8.60;99.90;;;;;;4982625;28;20451;-68
2023/10/28 08:29:23;;;;;;;7.32;2.63;;;8.60;99.90;;;;;;4982709;28;20386;-67
2023/10/28 08:31:49;;;;;;;4.78;2.10;;;8.60;99.90;;;;;;4984674;28;20113;-68
2023/10/28 08:34:15;;;;;;;4.72;2.55;;;8.60;99.90;;;;;;4987013;28;20113;-67
2023/10/28 08:36:41;;;;;;;5.55;2.45;;;8.60;99.90;;;;;;4984701;28;20097;-67
2023/10/28 08:39:07;;;;;;;4.03;1.95;;;8.60;99.90;;;;;;4986689;28;20030;-68
2023/10/28 08:41:34;;;;;;;4.40;1.95;;;8.70;99.90;;;;;;4984037;28;20030;-69
2023/10/28 08:44:03;;;;;;;5.70;2.65;;;8.70;99.90;;;;;;4983409;28;20042;-67
2023/10/28 08:46:34;;;;;;;3.80;1.95;;;8.60;99.90;;;;;;4980697;28;20030;-67
2023/10/28 08:49:00;;;;;;;5.70;2.50;;;8.70;99.90;;;;;;4985507;28;20066;-67
2023/10/28 08:51:26;;;;;;;3.85;2.13;;;8.70;99.90;;;;;;4984131;28;20061;-67
2023/10/28 08:53:55;;;;;;;6.93;2.45;;;8.70;99.90;;;;;;4987452;28;20056;-68
2023/10/28 08:56:24;;;;;;;5.10;2.40;;;8.70;99.90;;;;;;4984083;28;20066;-67
2023/10/28 08:58:52;;;;;;;4.35;1.90;;;8.80;99.90;;;;;;4986024;28;20050;-68
2023/10/28 09:01:22;;;;;;;4.93;2.15;;;8.70;99.90;;;;;;4987089;28;20475;-67
2023/10/28 09:04:00;;;;;;;4.85;2.40;;;8.80;99.90;;;;;;4990435;28;20034;-68
2023/10/28 09:06:25;;;;;;;4.63;1.88;;;8.90;99.90;;;;;;4989803;28;20054;-69
2023/10/28 09:08:51;;;;;;;7.05;2.60;;;8.90;99.90;;;;;;4986089;28;20085;-67
2023/10/28 09:11:17;;;;;;;5.88;2.70;;;8.90;99.90;;;;;;4988643;28;20038;-67
2023/10/28 09:13:45;;;;;;;5.30;2.53;;;8.90;99.90;;;;;;4985382;28;20077;-67
2023/10/28 09:16:11;;;;;;;6.25;3.13;;;8.90;99.90;;;;;;4984766;28;20522;-67
2023/10/28 09:18:38;;;;;;;5.22;2.60;;;8.90;99.90;;;;;;4986345;28;20038;-70
2023/10/28 09:21:08;;;;;;;6.38;2.58;;;9.00;99.90;;;;;;4984316;28;20382;-70
2023/10/28 09:23:34;;;;;;;7.10;2.85;;;9.10;99.90;;;;;;4986322;28;20038;-67
2023/10/28 09:26:00;;;;;;;6.40;2.55;;;9.00;99.90;;;;;;4988704;28;20061;-67
2023/10/28 09:28:25;;;;;;;4.80;2.33;;;9.10;99.90;;;;;;4984358;28;20038;-66
2023/10/28 09:30:51;;;;;;;5.45;2.40;;;9.10;99.90;;;;;;4990871;28;20038;-70
2023/10/28 09:33:17;;;;;;;5.97;2.50;;;9.10;99.90;;;;;;4989281;28;20026;-68
2023/10/28 09:35:44;;;;;;;9.27;2.97;;;9.30;99.90;;;;;;4990505;28;20026;-68
2023/10/28 09:38:13;;;;;;;6.43;1.90;;;9.30;99.90;;;;;;4987471;28;20041;-67
2023/10/28 09:40:39;;;;;;;7.95;2.78;;;9.40;99.90;;;;;;4986985;28;20034;-69
2023/10/28 09:43:06;;;;;;;4.72;2.22;;;9.50;99.90;;;;;;4979218;28;20093;-67
2023/10/28 09:45:32;;;;;;;6.10;2.42;;;9.40;99.90;;;;;;4989910;28;20034;-68
2023/10/28 09:48:01;;;;;;;6.43;2.50;;;9.50;99.90;;;;;;4989152;28;20117;-67
2023/10/28 09:50:29;;;;;;;7.25;2.75;;;9.50;99.90;;;;;;4988937;28;20113;-68
2023/10/28 09:52:56;;;;;;;9.18;3.33;;;9.50;99.90;;;;;;4986866;28;20483;-68
2023/10/28 09:55:34;;;;;;;6.38;2.80;;;9.40;99.90;;;;;;4989230;28;20061;-69
2023/10/28 09:58:07;;;;;;;6.35;2.90;;;9.50;99.90;;;;;;4986395;28;20042;-69
2023/10/28 10:00:35;;;;;;;8.05;2.95;;;9.50;99.90;;;;;;4986637;28;20165;-70
2023/10/28 10:03:16;;;;;;;7.57;3.13;;;9.50;99.90;;;;;;4989912;28;20029;-69
2023/10/28 10:05:45;;;;;;;6.82;2.78;;;9.50;99.90;;;;;;4985554;28;20375;-69
2023/10/28 10:08:21;;;;;;;7.30;3.13;;;9.50;99.90;;;;;;4989782;28;20046;-67
2023/10/28 10:10:49;;;;;;;6.65;3.08;;;9.50;99.90;;;;;;4986516;28;20042;-68
2023/10/28 10:13:15;;;;;;;5.78;2.55;;;9.60;99.90;;;;;;4985124;28;20046;-67
2023/10/28 10:15:52;;;;;;;6.57;2.70;;;9.60;99.90;;;;;;4988450;28;20038;-67
2023/10/28 10:18:30;;;;;;;7.45;3.55;;;9.70;99.90;;;;;;4983535;28;20026;-67
2023/10/28 10:21:29;;;;;;;7.85;3.35;;;9.70;99.90;;;;;;4986940;28;20038;-67
2023/10/28 10:23:54;;;;;;;6.80;3.25;;;9.80;99.90;;;;;;4988889;28;20038;-67
2023/10/28 10:26:35;;;;;;;9.93;3.53;;;9.80;99.90;;;;;;4985533;28;20459;-66
2023/10/28 10:29:03;;;;;;;5.93;2.75;;;9.90;99.90;;;;;;4980375;28;20030;-67
2023/10/28 10:31:31;;;;;;;7.45;3.20;;;10.00;99.90;;;;;;4988941;28;20483;-67
2023/10/28 10:34:05;;;;;;;7.15;3.33;;;10.00;99.90;;;;;;4989285;28;20033;-67
2023/10/28 10:36:35;;;;;;;7.47;3.50;;;10.10;99.90;;;;;;4987152;28;20428;-69
2023/10/28 10:39:18;;;;;;;6.72;3.30;;;10.10;99.90;;;;;;4982110;28;20022;-66
2023/10/28 10:41:48;;;;;;;6.85;3.10;;;10.10;99.90;;;;;;4985302;28;20117;-68
2023/10/28 10:44:38;;;;;;;7.47;3.55;;;10.10;99.90;;;;;;4988753;28;20742;-66
2023/10/28 10:47:05;;;;;;;11.10;3.85;;;10.20;99.90;;;;;;4988209;28;20130;-67
2023/10/28 10:49:32;;;;;;;6.72;3.22;;;10.20;99.90;;;;;;4984663;28;20034;-69
2023/10/28 10:52:01;;;;;;;8.52;3.70;;;10.30;99.90;;;;;;4987484;28;20563;-67
2023/10/28 10:54:40;;;;;;;8.30;3.88;;;10.30;99.90;;;;;;4990408;28;20037;-67
2023/10/28 10:57:07;;;;;;;7.85;3.65;;;10.40;99.90;;;;;;4986166;28;20030;-70
2023/10/28 10:59:34;;;;;;;7.82;3.80;;;10.40;99.90;;;;;;4986808;28;20390;-69
2023/10/28 11:02:01;;;;;;;8.88;4.25;;;10.40;99.90;;;;;;4986991;28;20043;-67
2023/10/28 11:04:29;;;;;;;7.47;3.25;;;10.50;99.90;;;;;;4986415;28;20030;-67
2023/10/28 11:06:54;;;;;;;9.20;3.40;;;10.60;99.90;;;;;;4986231;28;20739;-67
2023/10/28 11:09:21;;;;;;;8.85;3.78;;;10.70;99.90;;;;;;4991176;28;20038;-66
2023/10/28 11:11:46;;;;;;;8.85;3.53;;;10.80;99.90;;;;;;4988959;28;20030;-67
2023/10/28 11:14:15;;;;;;;5.80;3.08;;;11.00;99.90;;;;;;4986698;28;20045;-68
2023/10/28 11:16:41;;;;;;;6.30;3.00;;;11.10;99.90;;;;;;4986736;28;20441;-67
2023/10/28 11:19:09;;;;;;;6.32;3.55;;;11.20;99.90;;;;;;4986248;28;20101;-67
2023/10/28 11:21:36;;;;;;;7.63;3.35;;;11.40;99.90;;;;;;4987213;28;20034;-67
2023/10/28 11:24:04;;;;;;;7.20;3.17;;;11.60;99.90;;;;;;4984469;28;20034;-67
2023/10/28 11:26:29;;;;;;;6.45;3.25;;;11.50;99.70;;;;;;4986932;28;20061;-67
2023/10/28 11:28:59;;;;;;;7.30;3.70;;;11.70;99.70;;;;;;4982493;28;20379;-67
2023/10/28 11:31:28;;;;;;;7.15;3.58;;;11.80;99.60;;;;;;4982797;28;20073;-67
2023/10/28 11:33:55;;;;;;;7.18;3.70;;;11.90;99.50;;;;;;4985448;28;20049;-68
2023/10/28 11:36:22;;;;;;;6.90;3.45;;;11.90;99.10;;;;;;4978124;28;20045;-67
2023/10/28 11:38:47;;;;;;;6.72;3.45;;;11.90;98.90;;;;;;4981968;28;20069;-70
2023/10/28 11:41:13;;;;;;;6.25;2.95;;;11.90;98.80;;;;;;4982443;28;20125;-67
2023/10/28 11:43:39;;;;;;;6.50;2.90;;;12.10;98.90;;;;;;4984620;28;20034;-67
2023/10/28 11:46:04;;;;;;;7.55;3.40;;;11.80;98.20;;;;;;4985530;28;20218;-67
2023/10/28 11:48:33;;;;;;;4.55;2.70;;;11.80;98.40;;;;;;4987336;28;20046;-67
2023/10/28 11:50:59;;;;;;;6.43;2.90;;;11.70;98.20;;;;;;4988193;28;20031;-67
2023/10/28 11:53:25;;;;;;;4.82;2.15;;;11.70;98.50;;;;;;4988116;28;20037;-68
2023/10/28 11:55:51;;;;;;;4.60;2.70;;;11.80;98.80;;;;;;4986154;28;20041;-67
2023/10/28 11:58:17;;;;;;;6.57;2.40;;;11.70;98.60;;;;;;4984843;28;20030;-67
2023/10/28 12:00:52;;;;;;;6.63;2.80;;;11.80;98.80;;;;;;4984938;28;20042;-70
2023/10/28 12:03:18;;;;;;;4.88;2.58;;;11.80;98.90;;;;;;4986816;28;20031;-66
2023/10/28 12:05:44;;;;;;;4.93;2.70;;;11.80;99.00;;;;;;4987426;28;20394;-68
2023/10/28 12:08:11;;;;;;;4.78;2.38;;;11.90;98.90;;;;;;4988810;28;20058;-67
2023/10/28 12:10:44;;;;;;;4.10;2.45;;;11.90;98.60;;;;;;4979764;28;20026;-67
2023/10/28 12:13:11;;;;;;;4.40;1.80;;;12.00;98.60;;;;;;4986103;28;20521;-67
2023/10/28 12:15:37;;;;;;;3.38;1.58;;;11.90;98.10;;;;;;4983635;28;20037;-67
2023/10/28 12:18:02;;;;;;;3.38;1.92;;;11.90;98.10;;;;;;4988067;28;20034;-67
2023/10/28 12:20:28;;;;;;;2.10;1.50;;;12.00;98.40;;;;;;4987690;28;20069;-67
2023/10/28 12:22:53;;;;;;;3.67;1.65;;;12.00;98.20;;;;;;4988302;28;20030;-67
2023/10/28 12:25:19;;;;;;;2.70;1.70;;;11.90;97.80;;;;;;4984825;28;20391;-67
2023/10/28 12:27:44;;;;;;;2.47;1.50;;;11.90;97.70;;;;;;4980773;28;20073;-67
2023/10/28 12:30:10;;;;;;;3.17;1.33;;;12.10;98.00;;;;;;4987302;28;20415;-67
2023/10/28 12:32:35;;;;;;;2.13;1.33;;;12.10;97.30;;;;;;4985289;28;20026;-69
2023/10/28 12:35:01;;;;;;;2.65;1.17;;;12.20;97.30;;;;;;4988840;28;20374;-67
2023/10/28 12:37:26;;;;;;;1.17;0.85;;;12.30;97.10;;;;;;4991085;28;20471;-67
2023/10/28 12:39:52;;;;;;;3.97;1.38;;;12.50;97.00;;;;;;4988194;28;20038;-67
2023/10/28 12:42:18;;;;;;;1.33;0.90;;;12.50;96.10;;;;;;4985472;28;20070;-68
2023/10/28 12:44:43;;;;;;;1.70;1.25;;;12.40;96.10;;;;;;4984185;28;20026;-67
2023/10/28 12:47:09;;;;;;;1.67;1.10;;;12.30;95.90;;;;;;4990166;28;20031;-70
2023/10/28 12:49:34;;;;;;;2.47;1.25;;;12.20;96.50;;;;;;4990340;28;20396;-66
2023/10/28 12:52:01;;;;;;;1.67;0.95;;;12.10;96.30;;;;;;4992243;28;20030;-67
2023/10/28 12:54:27;;;;;;;1.08;0.93;;;12.10;96.70;;;;;;4989033;28;20042;-67